| Date | Time | Temp. (oF) | Dew Point (oF) | Rel. Hum. (%) | Press. (in.) | Wind Dir. | Wind Speed (mph) | Hourly Rainfall (in.) |
|
|---|---|---|---|---|---|---|---|---|---|
| 1 | 08/17 | 00:00 | 74 | 71 | 93 | 29.99 | S | 5 | 0.00 |
| 2 | 08/16 | 23:00 | 76 | 72 | 89 | 29.97 | NE | 1 | 0.00 |
| 3 | 08/16 | 22:00 | 75 | 71 | 90 | 29.97 | SE | 2 | 0.00 |
| 4 | 08/16 | 21:00 | 75 | 72 | 92 | 29.97 | SSE | 2 | 0.00 |
| 5 | 08/16 | 20:00 | 76 | 72 | 89 | 29.96 | SSE | 2 | 0.00 |
| 6 | 08/16 | 19:00 | 75 | 72 | 91 | 29.96 | SSE | 2 | 0.00 |
| 7 | 08/16 | 18:00 | 75 | 70 | 87 | 29.99 | E | 2 | 0.01 |
| 8 | 08/16 | 17:00 | 77 | 71 | 83 | 29.98 | SW | 5 | 0.11 |
| 9 | 08/16 | 16:00 | 88 | 73 | 63 | 29.97 | SE | 6 | 0.00 |
| 10 | 08/16 | 15:00 | 89 | 73 | 61 | 29.99 | SSE | 7 | 0.00 |
| 11 | 08/16 | 14:00 | 88 | 73 | 63 | 30.03 | SE | 4 | 0.00 |
| 12 | 08/16 | 13:00 | 86 | 74 | 69 | 30.05 | SSE | 8 | 0.00 |
| 13 | 08/16 | 12:00 | 85 | 73 | 69 | 30.07 | SE | 4 | 0.00 |
| 14 | 08/16 | 11:00 | 82 | 73 | 75 | 30.09 | SSE | 10 | 0.00 |
| 15 | 08/16 | 10:00 | 78 | 71 | 81 | 30.10 | SE | 4 | 0.00 |
| 16 | 08/16 | 09:00 | 75 | 71 | 89 | 30.11 | SSE | 4 | 0.01 |
| 17 | 08/16 | 08:00 | 72 | 71 | 97 | 30.11 | SSE | 0 | 0.00 |
| 18 | 08/16 | 07:00 | 71 | 70 | 97 | 30.10 | SE | 0 | 0.00 |
| 19 | 08/16 | 06:00 | 71 | 69 | 96 | 30.10 | SE | 0 | 0.00 |
| 20 | 08/16 | 05:00 | 71 | 69 | 95 | 30.10 | SSE | 0 | 0.00 |
| 21 | 08/16 | 04:00 | 71 | 69 | 94 | 30.10 | S | 0 | 0.00 |
| 22 | 08/16 | 03:00 | 72 | 69 | 93 | 30.11 | SSE | 0 | 0.00 |
| 23 | 08/16 | 02:00 | 73 | 70 | 93 | 30.12 | SSE | 1 | 0.00 |
| 24 | 08/16 | 01:00 | 74 | 71 | 92 | 30.13 | S | 0 | 0.00 |